createdAt,value
2022-11-09T00:00:00.166Z,994.41
2022-11-09T00:05:00.131Z,994.51
2022-11-09T00:10:00.285Z,994.47
2022-11-09T00:15:00.129Z,994.55
2022-11-09T00:20:00.107Z,994.55
2022-11-09T00:25:00.123Z,994.56
2022-11-09T00:30:00.114Z,994.56
2022-11-09T00:35:00.172Z,994.56
2022-11-09T00:40:00.110Z,994.54
2022-11-09T00:45:00.136Z,994.52
2022-11-09T00:50:00.137Z,994.49
2022-11-09T00:55:00.194Z,994.63
2022-11-09T01:00:00.224Z,994.55
2022-11-09T01:05:00.195Z,994.61
2022-11-09T01:10:00.141Z,994.6
2022-11-09T01:15:00.133Z,994.49
2022-11-09T01:20:00.172Z,994.44
2022-11-09T01:25:00.130Z,994.52
2022-11-09T01:30:00.175Z,994.35
2022-11-09T01:35:00.128Z,994.33
2022-11-09T01:40:00.126Z,994.31
2022-11-09T01:45:00.094Z,994.33
2022-11-09T01:50:00.173Z,994.36
2022-11-09T01:55:00.254Z,994.32
2022-11-09T02:00:00.156Z,994.34
2022-11-09T02:05:00.094Z,994.4
2022-11-09T02:10:00.130Z,994.35
2022-11-09T02:15:00.150Z,994.18
2022-11-09T02:20:00.097Z,994.24
2022-11-09T02:25:00.093Z,994.3
2022-11-09T02:30:00.104Z,994.14
2022-11-09T02:35:00.118Z,994.08
2022-11-09T02:40:00.096Z,994.11
2022-11-09T02:45:00.098Z,994.09
2022-11-09T02:50:00.102Z,994.03
2022-11-09T02:55:00.115Z,993.83
2022-11-09T03:00:00.167Z,993.84
2022-11-09T03:05:00.128Z,993.78
2022-11-09T03:10:00.142Z,993.75
2022-11-09T03:15:00.194Z,993.8
2022-11-09T03:20:00.184Z,993.94
2022-11-09T03:25:00.104Z,993.98
2022-11-09T03:30:00.089Z,994.08
2022-11-09T03:35:00.211Z,993.94
2022-11-09T03:40:00.108Z,994.09
2022-11-09T03:45:00.111Z,993.97
2022-11-09T03:50:00.100Z,994.04
2022-11-09T03:55:00.290Z,994.03
2022-11-09T04:00:00.112Z,994
2022-11-09T04:05:00.105Z,993.9
2022-11-09T04:10:00.088Z,993.82
2022-11-09T04:15:00.132Z,993.86
2022-11-09T04:20:00.081Z,993.76
2022-11-09T04:25:00.108Z,993.4
2022-11-09T04:30:00.094Z,993.49
2022-11-09T04:35:00.126Z,993.74
2022-11-09T04:40:00.187Z,993.81
2022-11-09T04:45:00.089Z,993.87
2022-11-09T04:50:00.141Z,993.94
2022-11-09T04:55:00.186Z,993.88
2022-11-09T05:00:00.091Z,993.84
2022-11-09T05:05:00.126Z,993.85
2022-11-09T05:10:00.104Z,993.79
2022-11-09T05:15:00.104Z,993.78
2022-11-09T05:20:00.086Z,993.82
2022-11-09T05:25:00.101Z,993.89
2022-11-09T05:30:00.115Z,993.83
2022-11-09T05:35:00.142Z,993.94
2022-11-09T05:40:00.088Z,993.9
2022-11-09T05:45:15.256Z,993.96
2022-11-09T05:50:00.102Z,993.9
2022-11-09T05:55:00.113Z,993.9
2022-11-09T06:00:00.110Z,993.98
2022-11-09T06:05:00.102Z,993.89
2022-11-09T06:10:00.093Z,993.83
2022-11-09T06:15:00.112Z,993.82
2022-11-09T06:20:00.102Z,993.79
2022-11-09T06:25:00.145Z,993.73
2022-11-09T06:30:00.117Z,993.71
2022-11-09T06:35:00.184Z,993.61
2022-11-09T06:40:00.089Z,993.66
2022-11-09T06:45:00.114Z,993.75
2022-11-09T06:50:00.115Z,993.78
2022-11-09T06:55:00.123Z,993.85
2022-11-09T07:00:00.140Z,993.93
2022-11-09T07:05:00.102Z,994.02
2022-11-09T07:10:00.098Z,994.14
2022-11-09T07:15:00.129Z,994.12
2022-11-09T07:20:00.087Z,994.09
2022-11-09T07:25:00.090Z,994.22
2022-11-09T07:30:00.145Z,994.16
2022-11-09T07:35:00.221Z,994.26
2022-11-09T07:40:00.097Z,994.19
2022-11-09T07:45:00.131Z,994.15
2022-11-09T07:50:00.162Z,994.14
2022-11-09T07:55:00.228Z,994.13
2022-11-09T08:00:00.116Z,994.23
2022-11-09T08:05:00.109Z,994.29
2022-11-09T08:10:00.107Z,994.18
2022-11-09T08:15:00.129Z,994.31
2022-11-09T08:20:00.191Z,994.4
2022-11-09T08:25:00.090Z,994.32
2022-11-09T08:30:00.153Z,994.31
2022-11-09T08:35:00.136Z,994.31
2022-11-09T08:40:00.108Z,994.46
2022-11-09T08:45:00.102Z,994.58
2022-11-09T08:50:00.095Z,994.62
2022-11-09T08:55:00.145Z,994.67
2022-11-09T09:00:00.216Z,994.72
2022-11-09T09:05:00.114Z,994.68
2022-11-09T09:10:00.146Z,994.78
2022-11-09T09:15:00.122Z,994.85
2022-11-09T09:20:00.092Z,994.76
2022-11-09T09:25:00.088Z,994.66
2022-11-09T09:30:00.127Z,994.65
2022-11-09T09:35:00.110Z,994.52
2022-11-09T09:40:00.087Z,994.52
2022-11-09T09:45:00.098Z,994.51
2022-11-09T09:50:00.244Z,994.51
2022-11-09T09:55:00.108Z,994.65
2022-11-09T10:00:00.121Z,994.67
2022-11-09T10:05:00.131Z,994.54
2022-11-09T10:10:00.112Z,994.54
2022-11-09T10:15:00.124Z,994.66
2022-11-09T10:20:00.089Z,994.52
2022-11-09T10:30:00.113Z,994.51
2022-11-09T10:35:00.127Z,994.35
2022-11-09T10:40:00.109Z,994.35
2022-11-09T10:45:00.120Z,994.52
2022-11-09T10:50:00.110Z,994.49
2022-11-09T10:55:00.117Z,994.38
2022-11-09T11:00:00.124Z,994.47
2022-11-09T11:05:00.089Z,994.42
2022-11-09T11:10:00.112Z,994.55
2022-11-09T11:15:00.103Z,994.35
2022-11-09T11:20:00.119Z,994.42
2022-11-09T11:25:00.113Z,994.41
2022-11-09T11:30:00.107Z,994.41
2022-11-09T11:35:01.500Z,994.41
2022-11-09T11:40:00.107Z,994.33
2022-11-09T11:45:18.789Z,994.46
2022-11-09T11:50:00.111Z,994.35
2022-11-09T11:55:00.120Z,994.44
2022-11-09T12:00:00.549Z,994.52
2022-11-09T12:05:00.108Z,994.46
2022-11-09T12:10:00.119Z,994.53
2022-11-09T12:15:00.164Z,994.4
2022-11-09T12:20:00.102Z,994.34
2022-11-09T12:25:00.113Z,994.3
2022-11-09T12:30:00.104Z,994.29
2022-11-09T12:35:00.131Z,994.29
2022-11-09T12:40:00.127Z,994.2
2022-11-09T12:45:00.189Z,994.17
2022-11-09T12:50:00.097Z,994.12
2022-11-09T12:55:00.124Z,994.12
2022-11-09T13:00:00.107Z,994.08
2022-11-09T13:05:00.079Z,994
2022-11-09T13:10:00.099Z,993.98
2022-11-09T13:15:00.118Z,993.9
2022-11-09T13:20:00.095Z,993.94
2022-11-09T13:25:00.182Z,993.9
2022-11-09T13:30:00.132Z,993.93
2022-11-09T13:35:00.129Z,994.11
2022-11-09T13:40:00.106Z,994.23
2022-11-09T13:45:00.121Z,994.18
2022-11-09T13:50:00.115Z,994.35
2022-11-09T13:55:00.128Z,994.26
2022-11-09T14:00:00.160Z,994.32
2022-11-09T14:05:00.162Z,994.38
2022-11-09T14:10:00.108Z,994.38
2022-11-09T14:15:00.217Z,994.51
2022-11-09T14:20:00.122Z,994.58
2022-11-09T14:25:00.144Z,994.65
2022-11-09T14:30:00.106Z,994.69
2022-11-09T14:35:00.124Z,994.61
2022-11-09T14:40:00.107Z,994.68
2022-11-09T14:45:00.126Z,994.6
2022-11-09T14:50:00.100Z,994.68
2022-11-09T14:55:00.195Z,994.74
2022-11-09T15:00:00.105Z,994.76
2022-11-09T15:05:00.109Z,994.76
2022-11-09T15:10:00.092Z,994.76
2022-11-09T15:15:00.209Z,994.7
2022-11-09T15:20:00.113Z,994.73
2022-11-09T15:25:00.107Z,994.82
2022-11-09T15:30:00.114Z,994.78
2022-11-09T15:35:00.209Z,994.8
2022-11-09T15:40:00.103Z,994.65
2022-11-09T15:45:00.255Z,994.68
2022-11-09T15:50:00.086Z,994.69
2022-11-09T15:55:00.133Z,994.68
2022-11-09T16:00:00.129Z,994.73
2022-11-09T16:05:00.127Z,994.78
2022-11-09T16:10:00.102Z,994.83
2022-11-09T16:15:00.106Z,994.94
2022-11-09T16:20:00.098Z,994.96
2022-11-09T16:25:00.099Z,994.92
2022-11-09T16:30:00.110Z,994.97
2022-11-09T16:35:15.756Z,995.08
2022-11-09T16:40:00.090Z,995.25
2022-11-09T16:45:00.101Z,995.19
2022-11-09T16:50:00.222Z,995.24
2022-11-09T16:55:00.191Z,995.25
2022-11-09T17:00:00.216Z,995.26
2022-11-09T17:05:00.099Z,995.32
2022-11-09T17:10:00.107Z,995.4
2022-11-09T17:15:00.128Z,995.46
2022-11-09T17:20:00.110Z,995.43
2022-11-09T17:25:00.091Z,995.41
2022-11-09T17:30:00.108Z,995.54
2022-11-09T17:35:00.138Z,995.6
2022-11-09T17:40:00.089Z,995.5
2022-11-09T17:45:00.087Z,995.68
2022-11-09T17:50:00.108Z,995.64
2022-11-09T17:55:00.094Z,995.68
2022-11-09T18:00:00.269Z,995.73
2022-11-09T18:05:00.085Z,995.75
2022-11-09T18:10:00.124Z,995.81
2022-11-09T18:15:00.109Z,995.89
2022-11-09T18:20:00.099Z,995.99
2022-11-09T18:25:00.119Z,996.08
2022-11-09T18:30:00.096Z,996.05
2022-11-09T18:35:00.120Z,995.98
2022-11-09T18:40:00.104Z,996
2022-11-09T18:45:00.108Z,996.04
2022-11-09T18:50:00.110Z,996.08
2022-11-09T18:55:00.189Z,996.18
2022-11-09T19:00:00.097Z,996.16
2022-11-09T19:05:00.098Z,996.15
2022-11-09T19:10:00.114Z,996.22
2022-11-09T19:15:00.128Z,996.18
2022-11-09T19:20:00.090Z,996.33
2022-11-09T19:25:00.096Z,996.35
2022-11-09T19:30:01.505Z,996.45
2022-11-09T19:35:00.268Z,996.49
2022-11-09T19:40:00.096Z,996.51
2022-11-09T19:45:00.092Z,996.57
2022-11-09T19:50:00.106Z,996.56
2022-11-09T19:55:00.130Z,996.59
2022-11-09T20:00:00.131Z,996.66
2022-11-09T20:05:00.100Z,996.67
2022-11-09T20:10:00.087Z,996.75
2022-11-09T20:15:00.138Z,996.71
2022-11-09T20:20:00.117Z,996.8
2022-11-09T20:25:00.096Z,996.79
2022-11-09T20:30:00.102Z,996.86
2022-11-09T20:35:00.139Z,996.87
2022-11-09T20:40:00.096Z,996.95
2022-11-09T20:45:00.117Z,997.02
2022-11-09T20:50:00.089Z,997.03
2022-11-09T20:55:00.114Z,997.07
2022-11-09T21:00:00.149Z,997.13
2022-11-09T21:05:00.114Z,997.16
2022-11-09T21:10:00.089Z,997.2
2022-11-09T21:15:00.124Z,997.18
2022-11-09T21:20:00.112Z,997.22
2022-11-09T21:25:00.098Z,997.71
2022-11-09T21:30:00.131Z,997.89
2022-11-09T21:35:00.118Z,997.94
2022-11-09T21:40:00.099Z,998.01
2022-11-09T21:45:00.091Z,998.21
2022-11-09T21:50:00.106Z,998.25
2022-11-09T21:55:00.109Z,998.3
2022-11-09T22:00:00.142Z,998.27
2022-11-09T22:05:00.095Z,998.33
2022-11-09T22:10:10.216Z,998.47
2022-11-09T22:15:00.125Z,998.43
2022-11-09T22:20:00.436Z,998.47
2022-11-09T22:25:00.101Z,998.59
2022-11-09T22:30:00.130Z,998.51
2022-11-09T22:35:00.122Z,998.68
2022-11-09T22:40:00.118Z,998.75
2022-11-09T22:45:00.092Z,998.81
2022-11-09T22:50:00.104Z,998.81
2022-11-09T22:55:00.134Z,998.87
2022-11-09T23:00:00.189Z,998.93
2022-11-09T23:05:00.092Z,998.86
2022-11-09T23:10:00.109Z,998.98
2022-11-09T23:15:00.136Z,999.03
2022-11-09T23:20:00.110Z,999.06
2022-11-09T23:25:00.103Z,999.2
2022-11-09T23:30:00.127Z,999.29
2022-11-09T23:35:00.134Z,999.34
2022-11-09T23:40:00.088Z,999.43
2022-11-09T23:45:00.087Z,999.45
2022-11-09T23:50:00.084Z,999.49
2022-11-09T23:55:00.114Z,999.45
